Time;durP1;ratioP1;P1;durP2;ratioP2;P2;SDS_P1;SDS_P2;PMS_P1;PMS_P2;Temp;Humidity;BMP_temperature;BMP_pressure;BME280_temperature;BME280_humidity;BME280_pressure;Samples;Min_cycle;Max_cycle;Signal;HPM_P1;HPM_P2
2023/11/11 00:01:59;;;;;;;215.40;52.92;;;;;;;;;;5011591;28;20408;-45
2023/11/11 00:04:25;;;;;;;216.07;53.85;;;;;;;;;;5011283;28;20589;-44
2023/11/11 00:06:52;;;;;;;221.60;56.85;;;;;;;;;;5011474;28;20187;-44
2023/11/11 00:09:21;;;;;;;216.17;53.87;;;;;;;;;;5011706;28;20182;-44
2023/11/11 00:11:47;;;;;;;213.52;52.88;;;;;;;;;;5004660;28;20492;-44
2023/11/11 00:14:14;;;;;;;216.18;55.00;;;;;;;;;;5011619;28;20246;-44
2023/11/11 00:16:40;;;;;;;218.82;55.50;;;;;;;;;;5011171;28;20229;-44
2023/11/11 00:19:13;;;;;;;212.47;52.50;;;;;;;;;;5011504;28;20271;-44
2023/11/11 00:21:41;;;;;;;216.55;54.60;;;;;;;;;;5011508;28;20467;-44
2023/11/11 00:24:09;;;;;;;216.38;56.45;;;;;;;;;;5011686;28;20581;-44
2023/11/11 00:26:35;;;;;;;213.13;52.38;;;;;;;;;;5011429;28;20624;-45
2023/11/11 00:29:02;;;;;;;215.30;53.67;;;;;;;;;;5011263;28;20276;-44
2023/11/11 00:31:28;;;;;;;218.07;55.35;;;;;;;;;;5011126;28;20801;-44
2023/11/11 00:33:54;;;;;;;215.10;54.40;;;;;;;;;;5011464;28;20189;-44
2023/11/11 00:36:20;;;;;;;219.68;58.80;;;;;;;;;;5011288;28;20406;-44
2023/11/11 00:38:47;;;;;;;217.88;57.75;;;;;;;;;;5011085;28;20621;-45
2023/11/11 00:41:14;;;;;;;218.90;58.00;;;;;;;;;;5011303;28;20190;-44
2023/11/11 00:43:40;;;;;;;218.50;56.72;;;;;;;;;;5011688;28;20202;-44
2023/11/11 00:46:05;;;;;;;219.57;58.50;;;;;;;;;;5011193;28;20213;-44
2023/11/11 00:48:32;;;;;;;218.57;57.93;;;;;;;;;;5010988;28;20511;-44
2023/11/11 00:51:00;;;;;;;216.77;56.05;;;;;;;;;;5011180;28;20511;-44
2023/11/11 00:53:27;;;;;;;221.48;61.13;;;;;;;;;;5011058;28;20189;-44
2023/11/11 00:55:53;;;;;;;217.60;57.25;;;;;;;;;;5011153;28;20198;-44
2023/11/11 00:58:19;;;;;;;217.27;56.63;;;;;;;;;;5011098;28;20198;-44
2023/11/11 01:00:45;;;;;;;215.23;54.72;;;;;;;;;;5014692;28;20177;-44
2023/11/11 01:03:12;;;;;;;217.15;57.22;;;;;;;;;;5014722;28;20174;-44
2023/11/11 01:05:38;;;;;;;217.05;57.22;;;;;;;;;;5014638;28;20199;-44
2023/11/11 01:08:04;;;;;;;216.47;55.80;;;;;;;;;;5014373;28;20200;-44
2023/11/11 01:10:34;;;;;;;216.40;55.33;;;;;;;;;;5014457;28;20424;-44
2023/11/11 01:13:01;;;;;;;218.05;57.13;;;;;;;;;;5014408;28;20665;-44
2023/11/11 01:15:27;;;;;;;217.60;56.83;;;;;;;;;;5014377;28;20178;-44
2023/11/11 01:17:53;;;;;;;217.93;57.63;;;;;;;;;;5017343;28;20194;-44
2023/11/11 01:20:20;;;;;;;213.93;53.65;;;;;;;;;;5034241;28;20263;-44
2023/11/11 01:22:46;;;;;;;217.20;56.83;;;;;;;;;;5014927;28;20175;-44
2023/11/11 01:25:12;;;;;;;214.32;55.42;;;;;;;;;;5029502;28;20641;-44
2023/11/11 01:27:39;;;;;;;217.67;57.83;;;;;;;;;;5022682;28;20230;-44
2023/11/11 01:30:06;;;;;;;218.00;59.22;;;;;;;;;;5021321;28;20415;-44
2023/11/11 01:32:32;;;;;;;218.90;57.13;;;;;;;;;;5023914;28;20201;-44
2023/11/11 01:34:58;;;;;;;215.97;55.90;;;;;;;;;;5013981;28;20258;-44
2023/11/11 01:37:24;;;;;;;217.87;57.90;;;;;;;;;;5013837;28;20435;-44
2023/11/11 01:39:50;;;;;;;215.67;55.83;;;;;;;;;;5010034;28;20431;-45
2023/11/11 01:42:17;;;;;;;218.57;58.20;;;;;;;;;;5013906;28;20420;-44
2023/11/11 01:44:42;;;;;;;217.00;56.28;;;;;;;;;;5013940;28;20405;-43
2023/11/11 01:47:08;;;;;;;215.63;54.40;;;;;;;;;;5013712;28;20535;-44
2023/11/11 01:49:34;;;;;;;216.55;56.15;;;;;;;;;;5013825;28;20417;-44
2023/11/11 01:52:04;;;;;;;217.00;57.87;;;;;;;;;;5013672;28;20672;-44
2023/11/11 01:54:30;;;;;;;218.52;59.35;;;;;;;;;;5013589;28;20918;-44
2023/11/11 01:56:57;;;;;;;220.50;58.30;;;;;;;;;;5013375;28;20179;-44
2023/11/11 01:59:25;;;;;;;212.23;53.05;;;;;;;;;;5013493;28;20172;-44
2023/11/11 02:01:51;;;;;;;220.75;59.72;;;;;;;;;;5013251;28;20182;-44
2023/11/11 02:04:18;;;;;;;216.18;55.40;;;;;;;;;;5013105;28;20669;-44
2023/11/11 02:06:47;;;;;;;217.93;57.90;;;;;;;;;;5013038;28;20177;-44
2023/11/11 02:09:15;;;;;;;217.15;58.47;;;;;;;;;;5013255;28;20206;-44
2023/11/11 02:11:41;;;;;;;218.18;57.50;;;;;;;;;;5012296;28;20198;-44
2023/11/11 02:14:08;;;;;;;216.50;55.80;;;;;;;;;;5015672;28;20185;-45
2023/11/11 02:16:34;;;;;;;214.82;54.33;;;;;;;;;;5014868;28;20174;-44
2023/11/11 02:19:01;;;;;;;217.90;56.90;;;;;;;;;;5013097;28;20200;-44
2023/11/11 02:21:31;;;;;;;215.40;55.03;;;;;;;;;;5013057;28;20190;-44
2023/11/11 02:23:58;;;;;;;218.50;58.13;;;;;;;;;;5013123;28;20240;-44
2023/11/11 02:26:24;;;;;;;213.32;54.47;;;;;;;;;;5013284;28;20182;-44
2023/11/11 02:28:51;;;;;;;218.23;57.27;;;;;;;;;;5012824;28;20539;-44
2023/11/11 02:31:17;;;;;;;214.63;55.15;;;;;;;;;;5013030;28;20507;-44
2023/11/11 02:33:43;;;;;;;216.07;56.00;;;;;;;;;;5012947;28;20646;-44
2023/11/11 02:36:10;;;;;;;213.32;54.47;;;;;;;;;;5012993;28;20430;-44
2023/11/11 02:38:36;;;;;;;216.10;55.92;;;;;;;;;;5012446;28;20596;-44
2023/11/11 02:41:01;;;;;;;216.30;56.20;;;;;;;;;;5012819;28;20202;-44
2023/11/11 02:43:28;;;;;;;216.83;56.33;;;;;;;;;;5012744;28;20500;-44
2023/11/11 02:45:54;;;;;;;214.05;55.08;;;;;;;;;;5012874;28;20413;-44
2023/11/11 02:48:20;;;;;;;214.85;54.17;;;;;;;;;;5012397;28;20198;-44
2023/11/11 02:50:46;;;;;;;216.33;56.57;;;;;;;;;;5013050;28;20773;-44
2023/11/11 02:53:12;;;;;;;215.57;54.63;;;;;;;;;;5012675;28;20397;-44
2023/11/11 02:55:38;;;;;;;216.27;56.33;;;;;;;;;;5012717;28;20408;-44
2023/11/11 02:58:04;;;;;;;212.53;53.90;;;;;;;;;;5012223;28;20429;-44
2023/11/11 03:00:30;;;;;;;214.03;55.70;;;;;;;;;;5012434;28;20424;-44
2023/11/11 03:02:55;;;;;;;215.37;55.50;;;;;;;;;;5012573;28;20450;-44
2023/11/11 03:05:21;;;;;;;215.27;55.63;;;;;;;;;;5012245;28;20422;-44
2023/11/11 03:07:47;;;;;;;217.17;55.97;;;;;;;;;;5012131;28;20435;-44
2023/11/11 03:10:13;;;;;;;215.87;57.00;;;;;;;;;;5012348;28;20463;-44
2023/11/11 03:12:41;;;;;;;214.57;54.80;;;;;;;;;;5012062;28;20465;-44
2023/11/11 03:15:07;;;;;;;212.10;53.17;;;;;;;;;;5012383;28;20595;-44
2023/11/11 03:17:33;;;;;;;214.48;54.95;;;;;;;;;;5011883;28;20248;-44
2023/11/11 03:19:59;;;;;;;212.40;53.50;;;;;;;;;;5012141;28;20180;-44
2023/11/11 03:22:26;;;;;;;215.20;54.40;;;;;;;;;;5011984;28;20881;-44
2023/11/11 03:24:52;;;;;;;212.75;54.03;;;;;;;;;;5012188;28;20653;-44
2023/11/11 03:27:18;;;;;;;214.45;55.28;;;;;;;;;;5011763;28;20573;-44
2023/11/11 03:29:44;;;;;;;212.70;54.42;;;;;;;;;;5003990;28;20175;-44
2023/11/11 03:32:10;;;;;;;214.60;55.47;;;;;;;;;;5011399;28;20221;-44
2023/11/11 03:34:36;;;;;;;216.90;57.53;;;;;;;;;;5012113;28;20169;-44
2023/11/11 03:37:03;;;;;;;214.27;55.03;;;;;;;;;;5024389;28;20919;-44
2023/11/11 03:39:31;;;;;;;212.65;53.70;;;;;;;;;;5022801;28;20393;-44
2023/11/11 03:41:58;;;;;;;215.20;56.90;;;;;;;;;;5016831;28;20177;-45
2023/11/11 03:44:23;;;;;;;211.75;54.28;;;;;;;;;;5030574;28;20160;-44
2023/11/11 03:46:49;;;;;;;217.67;58.77;;;;;;;;;;5011956;28;20166;-43
2023/11/11 03:49:15;;;;;;;216.47;58.00;;;;;;;;;;5028522;28;20435;-44
2023/11/11 03:51:41;;;;;;;218.00;58.78;;;;;;;;;;5018875;28;20547;-44
2023/11/11 03:54:07;;;;;;;216.47;58.77;;;;;;;;;;5011701;28;20667;-45
2023/11/11 03:56:33;;;;;;;214.90;55.80;;;;;;;;;;5007365;28;20413;-44
2023/11/11 03:58:59;;;;;;;212.87;54.50;;;;;;;;;;4992201;28;20507;-44
2023/11/11 04:01:26;;;;;;;214.77;55.97;;;;;;;;;;5011894;28;20404;-44
2023/11/11 04:03:52;;;;;;;212.50;53.90;;;;;;;;;;4995790;28;20852;-44
2023/11/11 04:06:17;;;;;;;214.27;55.43;;;;;;;;;;5003930;28;20268;-44
2023/11/11 04:08:43;;;;;;;212.97;55.23;;;;;;;;;;5003612;28;20441;-44
2023/11/11 04:11:10;;;;;;;212.57;54.73;;;;;;;;;;4995798;28;20491;-44
2023/11/11 04:13:39;;;;;;;215.13;57.33;;;;;;;;;;5011522;28;20453;-44
2023/11/11 04:16:06;;;;;;;218.43;59.50;;;;;;;;;;5011798;28;20514;-44
2023/11/11 04:18:33;;;;;;;213.77;56.53;;;;;;;;;;5011060;28;20197;-43
2023/11/11 04:21:00;;;;;;;216.52;57.78;;;;;;;;;;4999381;28;20661;-44
2023/11/11 04:23:28;;;;;;;215.18;56.05;;;;;;;;;;5000169;28;20181;-44
2023/11/11 04:25:54;;;;;;;212.60;55.35;;;;;;;;;;5007175;28;20723;-44
2023/11/11 04:28:20;;;;;;;216.38;57.10;;;;;;;;;;4991947;28;20197;-44
2023/11/11 04:30:46;;;;;;;212.90;55.40;;;;;;;;;;5011553;28;20188;-44
2023/11/11 04:33:12;;;;;;;212.15;53.72;;;;;;;;;;4999970;28;20429;-44
2023/11/11 04:35:37;;;;;;;215.27;57.13;;;;;;;;;;5015003;28;20185;-45
2023/11/11 04:38:07;;;;;;;211.13;54.60;;;;;;;;;;5014947;28;20426;-44
2023/11/11 04:40:33;;;;;;;213.07;57.13;;;;;;;;;;5014873;28;20529;-44
2023/11/11 04:42:59;;;;;;;212.10;56.13;;;;;;;;;;5015229;28;20294;-44
2023/11/11 04:45:25;;;;;;;211.90;53.60;;;;;;;;;;5015078;28;20805;-44
2023/11/11 04:47:51;;;;;;;212.17;53.70;;;;;;;;;;5014744;28;20195;-44
2023/11/11 04:50:18;;;;;;;212.57;55.33;;;;;;;;;;5014986;28;20882;-44
2023/11/11 04:52:45;;;;;;;214.38;56.35;;;;;;;;;;5014684;28;20908;-44
2023/11/11 04:55:12;;;;;;;212.32;53.70;;;;;;;;;;5014807;28;20194;-44
2023/11/11 04:57:38;;;;;;;212.85;55.58;;;;;;;;;;5014598;28;20712;-44
2023/11/11 05:00:09;;;;;;;211.63;54.47;;;;;;;;;;5014758;28;20257;-45
2023/11/11 05:02:35;;;;;;;215.77;58.33;;;;;;;;;;5014578;28;20512;-44
2023/11/11 05:05:01;;;;;;;213.37;54.93;;;;;;;;;;5014865;28;20599;-44
2023/11/11 05:07:27;;;;;;;213.32;56.60;;;;;;;;;;5014315;28;20450;-44
2023/11/11 05:09:53;;;;;;;213.90;56.40;;;;;;;;;;5014618;28;20264;-45
2023/11/11 05:12:20;;;;;;;209.73;52.90;;;;;;;;;;5014547;28;20466;-44
2023/11/11 05:14:46;;;;;;;214.05;55.90;;;;;;;;;;5006540;28;20417;-44
2023/11/11 05:17:13;;;;;;;214.83;57.07;;;;;;;;;;5014150;28;20569;-45
2023/11/11 05:19:39;;;;;;;215.25;57.63;;;;;;;;;;5014384;28;20401;-44
2023/11/11 05:22:06;;;;;;;210.60;54.03;;;;;;;;;;5014546;28;20188;-44
2023/11/11 05:24:32;;;;;;;210.57;54.67;;;;;;;;;;5010855;28;20201;-44
2023/11/11 05:26:59;;;;;;;213.90;57.10;;;;;;;;;;5013963;28;20390;-44
2023/11/11 05:29:25;;;;;;;213.68;57.35;;;;;;;;;;5020242;28;20226;-44
2023/11/11 05:31:51;;;;;;;214.98;59.05;;;;;;;;;;5013985;28;20229;-44
2023/11/11 05:34:17;;;;;;;217.23;61.05;;;;;;;;;;5014256;28;20257;-43
2023/11/11 05:36:43;;;;;;;214.20;57.07;;;;;;;;;;5013917;28;20659;-44
2023/11/11 05:39:09;;;;;;;210.90;55.53;;;;;;;;;;5016853;28;20436;-44
2023/11/11 05:41:37;;;;;;;212.63;56.50;;;;;;;;;;5013861;28;20468;-44
2023/11/11 05:44:06;;;;;;;211.68;54.42;;;;;;;;;;5013722;28;20173;-44
2023/11/11 05:46:32;;;;;;;212.55;55.63;;;;;;;;;;5021602;28;20201;-44
2023/11/11 05:48:57;;;;;;;211.05;54.05;;;;;;;;;;5013655;28;20235;-44
2023/11/11 05:51:25;;;;;;;212.17;56.30;;;;;;;;;;5016525;28;20229;-44
2023/11/11 05:53:51;;;;;;;212.40;55.13;;;;;;;;;;5014304;28;20466;-44
2023/11/11 05:56:19;;;;;;;208.27;53.33;;;;;;;;;;5017480;28;20583;-44
2023/11/11 05:58:45;;;;;;;211.02;54.28;;;;;;;;;;5017353;28;20920;-44
2023/11/11 06:01:11;;;;;;;211.77;55.40;;;;;;;;;;5021429;28;20192;-44
2023/11/11 06:03:38;;;;;;;211.47;54.83;;;;;;;;;;5013450;28;20412;-44
2023/11/11 06:06:05;;;;;;;212.10;55.65;;;;;;;;;;5016354;28;20412;-44
2023/11/11 06:08:31;;;;;;;211.43;54.75;;;;;;;;;;5017511;28;20196;-44
2023/11/11 06:10:57;;;;;;;211.20;54.70;;;;;;;;;;5013369;28;20208;-44
2023/11/11 06:13:23;;;;;;;210.77;54.70;;;;;;;;;;5013241;28;20794;-44
2023/11/11 06:15:49;;;;;;;213.97;57.63;;;;;;;;;;5013356;28;20241;-44
2023/11/11 06:18:15;;;;;;;213.50;58.17;;;;;;;;;;5013114;28;20455;-44
2023/11/11 06:20:41;;;;;;;213.27;56.55;;;;;;;;;;5013194;28;20418;-44
2023/11/11 06:23:07;;;;;;;211.40;55.13;;;;;;;;;;5017520;28;20637;-44
2023/11/11 06:25:33;;;;;;;212.02;56.25;;;;;;;;;;5019053;28;20445;-44
2023/11/11 06:27:59;;;;;;;210.60;54.25;;;;;;;;;;5012801;28;20251;-44
2023/11/11 06:30:26;;;;;;;214.77;56.00;;;;;;;;;;5013052;28;20174;-43
2023/11/11 06:32:52;;;;;;;210.70;54.97;;;;;;;;;;5013000;28;20449;-44
2023/11/11 06:35:26;;;;;;;212.75;58.80;;;;;;;;;;5015586;28;20667;-44
2023/11/11 06:37:52;;;;;;;212.55;56.03;;;;;;;;;;5014010;28;20188;-44
2023/11/11 06:40:18;;;;;;;212.45;55.95;;;;;;;;;;5018607;28;20186;-44
2023/11/11 06:42:45;;;;;;;209.80;54.73;;;;;;;;;;5020219;28;20589;-44
2023/11/11 06:45:14;;;;;;;213.65;56.30;;;;;;;;;;5012790;28;20412;-44
2023/11/11 06:47:41;;;;;;;211.25;54.95;;;;;;;;;;5015158;28;20569;-44
2023/11/11 06:50:07;;;;;;;213.02;56.60;;;;;;;;;;5012772;28;20657;-44
2023/11/11 06:52:35;;;;;;;213.60;56.85;;;;;;;;;;5012537;28;20681;-44
2023/11/11 06:55:02;;;;;;;213.60;56.95;;;;;;;;;;5012611;28;20174;-44
2023/11/11 06:57:28;;;;;;;212.60;54.75;;;;;;;;;;5019106;28;20334;-44
2023/11/11 06:59:54;;;;;;;212.23;55.40;;;;;;;;;;5012635;28;20231;-44
2023/11/11 07:02:22;;;;;;;216.03;59.20;;;;;;;;;;5012353;28;20778;-44
2023/11/11 07:04:53;;;;;;;216.52;59.38;;;;;;;;;;5012160;28;20988;-44
2023/11/11 07:07:21;;;;;;;210.52;54.50;;;;;;;;;;5017170;28;20506;-44
2023/11/11 07:09:49;;;;;;;211.13;55.38;;;;;;;;;;5004823;28;20222;-44
2023/11/11 07:12:17;;;;;;;212.77;56.40;;;;;;;;;;5012309;28;20216;-44
2023/11/11 07:14:45;;;;;;;215.13;57.67;;;;;;;;;;5012177;28;20260;-44
2023/11/11 07:17:11;;;;;;;211.95;54.60;;;;;;;;;;5011467;28;20198;-44
2023/11/11 07:19:37;;;;;;;214.23;58.47;;;;;;;;;;5016301;28;20176;-44
2023/11/11 07:22:03;;;;;;;211.40;55.15;;;;;;;;;;5011942;28;20178;-43
2023/11/11 07:24:29;;;;;;;209.68;53.65;;;;;;;;;;5019403;28;20208;-43
2023/11/11 07:26:55;;;;;;;214.13;56.57;;;;;;;;;;5011840;28;20206;-44
2023/11/11 07:29:25;;;;;;;212.85;56.38;;;;;;;;;;5014527;28;20418;-44
2023/11/11 07:31:51;;;;;;;211.10;55.47;;;;;;;;;;5012246;28;20193;-44
2023/11/11 07:34:17;;;;;;;213.63;57.60;;;;;;;;;;5015745;28;20202;-44
2023/11/11 07:36:43;;;;;;;213.67;58.93;;;;;;;;;;5015648;28;20405;-44
2023/11/11 07:39:09;;;;;;;212.47;54.60;;;;;;;;;;5031408;28;20423;-44
2023/11/11 07:41:35;;;;;;;212.40;55.00;;;;;;;;;;5031591;28;20931;-44
2023/11/11 07:44:04;;;;;;;210.17;53.77;;;;;;;;;;4999124;28;20467;-44
2023/11/11 07:46:32;;;;;;;215.85;57.20;;;;;;;;;;5004860;28;20412;-44
2023/11/11 07:48:59;;;;;;;212.60;53.42;;;;;;;;;;5002871;28;20200;-44
2023/11/11 07:51:25;;;;;;;214.43;57.45;;;;;;;;;;4996947;28;20701;-44
2023/11/11 07:53:52;;;;;;;215.75;58.25;;;;;;;;;;5011086;28;20171;-44
2023/11/11 07:56:18;;;;;;;214.60;57.58;;;;;;;;;;4992398;28;20192;-44
2023/11/11 07:58:47;;;;;;;218.33;60.63;;;;;;;;;;5008553;28;20273;-44
2023/11/11 08:01:14;;;;;;;216.75;59.42;;;;;;;;;;4999015;28;20419;-44
2023/11/11 08:03:40;;;;;;;215.60;58.30;;;;;;;;;;5001069;28;20181;-44
2023/11/11 08:06:07;;;;;;;210.77;53.20;;;;;;;;;;5006679;28;20266;-43
2023/11/11 08:08:34;;;;;;;217.70;60.50;;;;;;;;;;4993694;28;20226;-44
2023/11/11 08:11:01;;;;;;;216.23;58.92;;;;;;;;;;5015867;28;20464;-43
2023/11/11 08:13:28;;;;;;;213.90;56.85;;;;;;;;;;5003816;28;20189;-44
2023/11/11 08:15:54;;;;;;;215.88;58.65;;;;;;;;;;5015603;28;20170;-44
2023/11/11 08:18:20;;;;;;;212.40;53.83;;;;;;;;;;5015145;28;20557;-44
2023/11/11 08:20:46;;;;;;;212.32;53.15;;;;;;;;;;5015492;28;20464;-44
2023/11/11 08:23:12;;;;;;;214.55;55.95;;;;;;;;;;5015621;28;20178;-43
2023/11/11 08:25:38;;;;;;;212.83;53.80;;;;;;;;;;5015549;28;20185;-43
2023/11/11 08:28:05;;;;;;;215.10;57.15;;;;;;;;;;5020920;28;20424;-44
2023/11/11 08:30:31;;;;;;;212.48;53.50;;;;;;;;;;5022804;28;20177;-44
2023/11/11 08:32:57;;;;;;;216.40;57.38;;;;;;;;;;5015889;28;20713;-44
2023/11/11 08:35:23;;;;;;;213.23;55.42;;;;;;;;;;5017553;28;20175;-44
2023/11/11 08:37:49;;;;;;;211.53;54.50;;;;;;;;;;5015170;28;20193;-44
2023/11/11 08:40:17;;;;;;;212.27;56.23;;;;;;;;;;5019044;28;20424;-44
2023/11/11 08:42:43;;;;;;;212.90;55.10;;;;;;;;;;5015052;28;20418;-44
2023/11/11 08:45:13;;;;;;;214.02;55.13;;;;;;;;;;5022415;28;20191;-44
2023/11/11 08:47:39;;;;;;;214.57;56.40;;;;;;;;;;5014942;28;21295;-44
2023/11/11 08:50:07;;;;;;;213.30;56.40;;;;;;;;;;5015007;28;20179;-43
2023/11/11 08:52:33;;;;;;;214.88;55.17;;;;;;;;;;5014917;28;20285;-44
2023/11/11 08:54:59;;;;;;;215.52;57.67;;;;;;;;;;5027157;28;20673;-44
2023/11/11 08:57:26;;;;;;;226.30;66.15;;;;;;;;;;5023920;28;20265;-43
2023/11/11 08:59:51;;;;;;;213.73;54.95;;;;;;;;;;5014595;28;20175;-44
2023/11/11 09:02:19;;;;;;;212.60;54.73;;;;;;;;;;5014780;28;20174;-43
2023/11/11 09:04:45;;;;;;;213.18;55.40;;;;;;;;;;5007896;28;20493;-44
2023/11/11 09:07:11;;;;;;;213.90;55.13;;;;;;;;;;5014455;28;20182;-43
2023/11/11 09:09:37;;;;;;;214.17;55.40;;;;;;;;;;5014967;28;20190;-44
2023/11/11 09:12:03;;;;;;;211.52;52.67;;;;;;;;;;5014567;28;20449;-43
2023/11/11 09:14:33;;;;;;;215.20;56.50;;;;;;;;;;5014456;28;20186;-43
2023/11/11 09:17:00;;;;;;;217.60;58.03;;;;;;;;;;5015779;28;20240;-44
2023/11/11 09:19:26;;;;;;;217.27;57.58;;;;;;;;;;5016035;28;20171;-44
2023/11/11 09:21:53;;;;;;;213.47;53.83;;;;;;;;;;5034198;28;20170;-44
2023/11/11 09:24:19;;;;;;;215.55;54.38;;;;;;;;;;5033604;28;20422;-44
2023/11/11 09:26:45;;;;;;;218.43;57.70;;;;;;;;;;5018402;28;20194;-44
2023/11/11 09:29:15;;;;;;;218.83;58.70;;;;;;;;;;5025535;28;20523;-44
2023/11/11 09:31:43;;;;;;;218.77;57.22;;;;;;;;;;5026112;28;20465;-44
2023/11/11 09:34:11;;;;;;;214.88;54.88;;;;;;;;;;5018256;28;20179;-44
2023/11/11 09:36:39;;;;;;;215.73;56.42;;;;;;;;;;5034374;28;20158;-43
2023/11/11 09:39:06;;;;;;;216.88;57.65;;;;;;;;;;5014206;28;20268;-44
2023/11/11 09:41:32;;;;;;;216.00;56.70;;;;;;;;;;5030425;28;20272;-44
2023/11/11 09:43:59;;;;;;;215.68;56.10;;;;;;;;;;5021406;28;20184;-43
2023/11/11 09:46:26;;;;;;;215.30;54.20;;;;;;;;;;5022379;28;20688;-43
2023/11/11 09:48:53;;;;;;;216.13;55.72;;;;;;;;;;5029070;28;20215;-44
2023/11/11 09:51:19;;;;;;;217.02;56.22;;;;;;;;;;5014378;28;20184;-44
2023/11/11 09:53:47;;;;;;;213.10;52.88;;;;;;;;;;5033736;28;20170;-44
2023/11/11 09:56:13;;;;;;;217.07;56.10;;;;;;;;;;5016932;28;20179;-43
2023/11/11 09:58:39;;;;;;;218.48;56.05;;;;;;;;;;5012505;28;20196;-43
2023/11/11 10:01:05;;;;;;;220.43;58.90;;;;;;;;;;5022194;28;20182;-44
2023/11/11 10:03:31;;;;;;;218.05;57.63;;;;;;;;;;5028948;28;20310;-43
2023/11/11 10:05:58;;;;;;;220.60;59.70;;;;;;;;;;5013930;28;20642;-43
2023/11/11 10:08:24;;;;;;;216.13;55.03;;;;;;;;;;5033245;28;20899;-44
2023/11/11 10:10:52;;;;;;;222.00;61.38;;;;;;;;;;5016805;28;20171;-44
2023/11/11 10:13:19;;;;;;;217.35;56.72;;;;;;;;;;5013582;28;20503;-44
2023/11/11 10:15:44;;;;;;;215.05;55.53;;;;;;;;;;5005112;28;20173;-44
2023/11/11 10:18:11;;;;;;;214.90;54.57;;;;;;;;;;4997914;28;20686;-43
2023/11/11 10:20:37;;;;;;;217.88;56.83;;;;;;;;;;5013141;28;20391;-44
2023/11/11 10:23:03;;;;;;;216.00;56.27;;;;;;;;;;4993847;28;20179;-44
2023/11/11 10:25:29;;;;;;;217.37;57.00;;;;;;;;;;5008142;28;20430;-44
2023/11/11 10:27:55;;;;;;;217.20;55.87;;;;;;;;;;5001298;28;20448;-45
2023/11/11 10:30:24;;;;;;;213.77;52.90;;;;;;;;;;5001350;28;20824;-44
2023/11/11 10:32:51;;;;;;;217.48;58.25;;;;;;;;;;5011098;28;20198;-44
2023/11/11 10:35:17;;;;;;;216.95;55.88;;;;;;;;;;5013005;28;20167;-44
2023/11/11 10:37:43;;;;;;;217.00;56.97;;;;;;;;;;4993305;28;20707;-44
2023/11/11 10:40:09;;;;;;;218.13;56.90;;;;;;;;;;5009049;28;20253;-43
2023/11/11 10:42:35;;;;;;;217.80;57.15;;;;;;;;;;5000958;28;20652;-44
2023/11/11 10:45:04;;;;;;;217.10;55.07;;;;;;;;;;5001219;28;20238;-44
2023/11/11 10:47:34;;;;;;;216.88;55.90;;;;;;;;;;5008326;28;20477;-43
2023/11/11 10:50:01;;;;;;;216.68;54.60;;;;;;;;;;4993887;28;20167;-43
2023/11/11 10:52:28;;;;;;;222.02;59.45;;;;;;;;;;5013067;28;20198;-44
2023/11/11 10:54:58;;;;;;;217.32;54.67;;;;;;;;;;4996039;28;20195;-44
2023/11/11 10:57:24;;;;;;;216.77;54.25;;;;;;;;;;5006016;28;20189;-44
2023/11/11 10:59:51;;;;;;;217.88;53.70;;;;;;;;;;5003635;28;20184;-44
2023/11/11 11:02:17;;;;;;;219.50;58.58;;;;;;;;;;4997922;28;20182;-44
2023/11/11 11:04:46;;;;;;;220.90;57.38;;;;;;;;;;5011467;28;20271;-43
2023/11/11 11:07:14;;;;;;;223.30;57.90;;;;;;;;;;4992674;28;20165;-44
2023/11/11 11:09:43;;;;;;;218.10;56.28;;;;;;;;;;5010332;28;20187;-44
2023/11/11 11:12:30;;;;;;;221.00;58.22;;;;;;;;;;4998485;28;20196;-45
2023/11/11 11:15:00;;;;;;;220.25;55.88;;;;;;;;;;5004906;28;20247;-44
2023/11/11 11:17:34;;;;;;;219.18;56.33;;;;;;;;;;5003183;28;20193;-44
2023/11/11 11:20:08;;;;;;;221.55;58.45;;;;;;;;;;4998774;28;20306;-43
2023/11/11 11:22:37;;;;;;;220.23;57.60;;;;;;;;;;5009252;28;20175;-44
2023/11/11 11:25:29;;;;;;;223.90;59.50;;;;;;;;;;4992891;28;20255;-44
2023/11/11 11:28:10;;;;;;;225.07;61.92;;;;;;;;;;5005403;28;20692;-44
2023/11/11 11:30:39;;;;;;;219.45;55.33;;;;;;;;;;5011058;28;20715;-44
2023/11/11 11:33:08;;;;;;;221.30;57.72;;;;;;;;;;5009461;28;20189;-44
2023/11/11 11:35:37;;;;;;;221.65;56.60;;;;;;;;;;5007321;28;20172;-43
2023/11/11 11:38:05;;;;;;;222.65;57.63;;;;;;;;;;5005622;28;20192;-44
2023/11/11 11:40:33;;;;;;;223.32;57.67;;;;;;;;;;5009019;28;20203;-44
2023/11/11 11:42:59;;;;;;;223.38;59.72;;;;;;;;;;5009446;28;20180;-43
2023/11/11 11:45:29;;;;;;;225.35;61.58;;;;;;;;;;5009471;28;20203;-45
2023/11/11 11:47:55;;;;;;;224.90;59.05;;;;;;;;;;5006307;28;20276;-44
2023/11/11 11:50:22;;;;;;;227.70;62.92;;;;;;;;;;4999103;28;20177;-44
2023/11/11 11:52:48;;;;;;;231.17;67.47;;;;;;;;;;5001418;28;20637;-43
2023/11/11 11:55:14;;;;;;;233.67;69.83;;;;;;;;;;4998360;28;20409;-44
2023/11/11 11:57:56;;;;;;;234.07;71.87;;;;;;;;;;5009114;28;20822;-44
2023/11/11 12:00:22;;;;;;;229.07;66.27;;;;;;;;;;4992486;28;20774;-43
2023/11/11 12:02:49;;;;;;;229.47;67.47;;;;;;;;;;5011902;28;20416;-44
2023/11/11 12:05:15;;;;;;;233.37;73.27;;;;;;;;;;4996000;28;20937;-43
2023/11/11 12:07:48;;;;;;;232.10;71.03;;;;;;;;;;5003946;28;20469;-44
2023/11/11 12:10:14;;;;;;;235.63;71.10;;;;;;;;;;5002249;28;20913;-44
2023/11/11 12:12:40;;;;;;;233.33;70.27;;;;;;;;;;4994988;28;20463;-45
2023/11/11 12:15:10;;;;;;;234.50;70.27;;;;;;;;;;5008805;28;20804;-43
2023/11/11 12:17:36;;;;;;;230.73;67.30;;;;;;;;;;4990666;28;20419;-44
2023/11/11 12:20:06;;;;;;;226.27;65.00;;;;;;;;;;5008538;28;20410;-43
2023/11/11 12:22:32;;;;;;;230.73;67.13;;;;;;;;;;4997900;28;20512;-44
2023/11/11 12:24:58;;;;;;;229.27;67.70;;;;;;;;;;5001309;28;20449;-43
2023/11/11 12:27:25;;;;;;;227.77;65.07;;;;;;;;;;5005817;28;20966;-44
2023/11/11 12:29:51;;;;;;;229.80;66.53;;;;;;;;;;4997291;28;20429;-44
2023/11/11 12:32:17;;;;;;;230.13;67.20;;;;;;;;;;5010693;28;20453;-44
2023/11/11 12:34:46;;;;;;;231.55;66.80;;;;;;;;;;4994561;28;20435;-44
2023/11/11 12:37:19;;;;;;;236.90;73.00;;;;;;;;;;4994108;28;20612;-44
2023/11/11 12:39:52;;;;;;;233.85;72.63;;;;;;;;;;5002561;28;20185;-43
2023/11/11 12:42:25;;;;;;;226.73;64.90;;;;;;;;;;4995149;28;20183;-44
2023/11/11 12:44:51;;;;;;;228.63;69.43;;;;;;;;;;5007279;28;20208;-43
2023/11/11 12:47:17;;;;;;;231.55;70.60;;;;;;;;;;4991695;28;20204;-45
2023/11/11 12:49:50;;;;;;;228.23;66.40;;;;;;;;;;5001750;28;20180;-44
2023/11/11 12:52:16;;;;;;;223.65;62.30;;;;;;;;;;4993293;28;20459;-44
2023/11/11 12:54:42;;;;;;;225.93;63.72;;;;;;;;;;4993017;28;20177;-44
2023/11/11 12:57:10;;;;;;;228.57;67.30;;;;;;;;;;4996773;28;20711;-44
2023/11/11 12:59:36;;;;;;;229.70;67.10;;;;;;;;;;4998406;28;20288;-44
2023/11/11 13:02:05;;;;;;;231.23;69.20;;;;;;;;;;5013104;28;20664;-44
2023/11/11 13:04:31;;;;;;;226.20;64.50;;;;;;;;;;5009720;28;20750;-44
2023/11/11 13:07:00;;;;;;;229.93;67.33;;;;;;;;;;4998701;28;20201;-45
2023/11/11 13:09:40;;;;;;;225.30;63.05;;;;;;;;;;5003861;28;20427;-44
2023/11/11 13:12:07;;;;;;;225.57;62.45;;;;;;;;;;5009810;28;20196;-44
2023/11/11 13:14:34;;;;;;;221.85;59.05;;;;;;;;;;5006995;28;20239;-44
2023/11/11 13:17:04;;;;;;;224.77;61.35;;;;;;;;;;4996422;28;20698;-44
2023/11/11 13:19:34;;;;;;;223.20;58.70;;;;;;;;;;5012938;28;20259;-44
2023/11/11 13:22:00;;;;;;;222.32;59.58;;;;;;;;;;4994392;28;20165;-44
2023/11/11 13:24:26;;;;;;;225.63;61.58;;;;;;;;;;4994891;28;20211;-44
2023/11/11 13:26:52;;;;;;;227.07;63.85;;;;;;;;;;5005942;28;20187;-44
2023/11/11 13:29:19;;;;;;;224.67;61.53;;;;;;;;;;5006171;28;20185;-44
2023/11/11 13:31:47;;;;;;;225.87;65.10;;;;;;;;;;4998516;28;20461;-44
2023/11/11 13:34:13;;;;;;;225.18;63.55;;;;;;;;;;5014414;28;20490;-44
2023/11/11 13:36:40;;;;;;;228.30;65.97;;;;;;;;;;4994718;28;20229;-44
2023/11/11 13:39:19;;;;;;;226.50;65.18;;;;;;;;;;5010532;28;20220;-44
2023/11/11 13:41:47;;;;;;;233.18;70.60;;;;;;;;;;5011672;28;20674;-43
2023/11/11 13:44:14;;;;;;;224.88;63.45;;;;;;;;;;5004123;28;20668;-45
2023/11/11 13:46:40;;;;;;;230.18;68.45;;;;;;;;;;5000250;28;20586;-44
2023/11/11 13:49:07;;;;;;;228.70;67.90;;;;;;;;;;5011967;28;20197;-43
2023/11/11 13:51:33;;;;;;;235.57;76.67;;;;;;;;;;4994440;28;20452;-44
2023/11/11 13:53:59;;;;;;;229.47;69.77;;;;;;;;;;5012124;28;20441;-44
2023/11/11 13:56:26;;;;;;;233.57;76.13;;;;;;;;;;4999848;28;20887;-43
2023/11/11 13:58:57;;;;;;;230.53;71.80;;;;;;;;;;5003903;28;20436;-43
2023/11/11 14:01:27;;;;;;;230.47;72.27;;;;;;;;;;5007466;28;20420;-44
2023/11/11 14:03:53;;;;;;;231.00;70.57;;;;;;;;;;4997234;28;20412;-44